createdAt,value
2018-09-30T00:00:05.231Z,76.74
2018-09-30T00:02:34.130Z,76.44
2018-09-30T00:05:02.623Z,77.50
2018-09-30T00:07:31.191Z,76.44
2018-09-30T00:10:00.889Z,76.42
2018-09-30T00:12:29.591Z,78.10
2018-09-30T00:14:58.183Z,77.81
2018-09-30T00:17:26.647Z,77.86
2018-09-30T00:19:55.221Z,78.53
2018-09-30T00:22:23.643Z,77.52
2018-09-30T00:24:57.491Z,77.83
2018-09-30T00:27:26.024Z,78.55
2018-09-30T00:29:54.432Z,78.19
2018-09-30T00:32:23.044Z,78.59
2018-09-30T00:34:51.419Z,77.83
2018-09-30T00:37:19.969Z,77.97
2018-09-30T00:39:48.368Z,79.58
2018-09-30T00:42:16.586Z,79.85
2018-09-30T00:44:45.214Z,79.10
2018-09-30T00:47:13.682Z,79.17
2018-09-30T00:49:42.179Z,80.53
2018-09-30T00:52:10.504Z,79.60
2018-09-30T00:54:39.008Z,79.06
2018-09-30T00:57:07.384Z,79.68
2018-09-30T00:59:35.759Z,80.71
2018-09-30T01:02:04.048Z,80.59
2018-09-30T01:04:32.467Z,80.22
2018-09-30T01:07:00.854Z,80.88
2018-09-30T01:09:29.247Z,81.79
2018-09-30T01:11:57.691Z,81.32
2018-09-30T01:14:26.181Z,81.23
2018-09-30T01:16:54.443Z,82.43
2018-09-30T01:19:22.647Z,81.93
2018-09-30T01:21:50.879Z,82.56
2018-09-30T01:24:19.030Z,82.26
2018-09-30T01:26:47.145Z,84.87
2018-09-30T01:29:15.359Z,82.79
2018-09-30T01:31:43.337Z,83.21
2018-09-30T01:34:11.402Z,83.45
2018-09-30T01:36:39.671Z,82.24
2018-09-30T01:39:07.825Z,83.25
2018-09-30T01:41:36.044Z,83.44
2018-09-30T01:44:04.242Z,83.27
2018-09-30T01:46:32.438Z,83.82
2018-09-30T01:49:00.868Z,85.03
2018-09-30T01:51:28.932Z,85.08
2018-09-30T01:53:57.010Z,85.86
2018-09-30T01:56:25.009Z,84.80
2018-09-30T01:58:53.274Z,84.67
2018-09-30T02:01:21.397Z,84.03
2018-09-30T02:03:49.482Z,85.10
2018-09-30T02:06:17.553Z,85.50
2018-09-30T02:08:45.825Z,84.65
2018-09-30T02:11:14.725Z,85.76
2018-09-30T02:13:42.869Z,85.04
2018-09-30T02:16:10.926Z,85.04
2018-09-30T02:18:40.182Z,84.22
2018-09-30T02:21:08.290Z,85.49
2018-09-30T02:23:36.266Z,85.96
2018-09-30T02:26:04.322Z,86.26
2018-09-30T02:28:32.601Z,86.17
2018-09-30T02:31:00.671Z,85.64
2018-09-30T02:33:28.749Z,85.61
2018-09-30T02:35:56.979Z,85.79
2018-09-30T02:38:25.261Z,87.40
2018-09-30T02:40:53.392Z,87.12
2018-09-30T02:43:21.521Z,87.15
2018-09-30T02:45:49.888Z,87.09
2018-09-30T02:48:18.043Z,85.74
2018-09-30T02:50:46.139Z,87.04
2018-09-30T02:53:14.275Z,87.34
2018-09-30T02:55:42.287Z,87.48
2018-09-30T02:58:10.802Z,86.43
2018-09-30T03:00:39.002Z,87.01
2018-09-30T03:03:07.213Z,87.12
2018-09-30T03:05:35.429Z,87.01
2018-09-30T03:08:09.000Z,87.59
2018-09-30T03:10:39.073Z,86.73
2018-09-30T03:13:07.779Z,86.35
2018-09-30T03:15:35.860Z,87.59
2018-09-30T03:18:03.930Z,87.50
2018-09-30T03:20:32.152Z,88.02
2018-09-30T03:23:00.249Z,88.82
2018-09-30T03:25:28.298Z,87.42
2018-09-30T03:27:56.406Z,88.86
2018-09-30T03:30:24.629Z,87.36
2018-09-30T03:32:52.679Z,88.08
2018-09-30T03:35:22.510Z,88.60
2018-09-30T03:37:50.557Z,88.69
2018-09-30T03:40:18.606Z,88.43
2018-09-30T03:42:46.864Z,88.05
2018-09-30T03:45:15.053Z,89.24
2018-09-30T03:47:43.272Z,88.27
2018-09-30T03:50:11.461Z,89.51
2018-09-30T03:52:39.601Z,89.13
2018-09-30T03:55:07.856Z,89.46
2018-09-30T03:57:35.978Z,89.10
2018-09-30T04:00:04.153Z,89.50
2018-09-30T04:02:32.251Z,89.26
2018-09-30T04:05:00.333Z,88.38
2018-09-30T04:07:28.498Z,88.56
2018-09-30T04:09:56.627Z,89.13
2018-09-30T04:12:24.880Z,88.64
2018-09-30T04:14:53.065Z,89.33
2018-09-30T04:17:21.445Z,89.25
2018-09-30T04:19:49.518Z,90.58
2018-09-30T04:22:17.685Z,89.12
2018-09-30T04:24:45.895Z,88.17
2018-09-30T04:27:14.039Z,89.91
2018-09-30T04:29:42.404Z,90.06
2018-09-30T04:32:10.681Z,89.29
2018-09-30T04:34:39.169Z,89.69
2018-09-30T04:37:07.365Z,89.42
2018-09-30T04:39:35.511Z,89.89
2018-09-30T04:42:03.606Z,89.58
2018-09-30T04:44:31.721Z,89.72
2018-09-30T04:47:00.091Z,89.80
2018-09-30T04:49:28.232Z,89.80
2018-09-30T04:51:56.583Z,89.18
2018-09-30T04:54:24.865Z,88.77
2018-09-30T04:56:54.106Z,87.40
2018-09-30T04:59:22.846Z,89.06
2018-09-30T05:01:55.540Z,87.69
2018-09-30T05:04:24.458Z,87.74
2018-09-30T05:06:53.045Z,87.19
2018-09-30T05:09:21.341Z,87.60
2018-09-30T05:11:49.490Z,86.46
2018-09-30T05:14:18.061Z,84.50
2018-09-30T05:16:47.397Z,82.62
2018-09-30T05:19:16.113Z,79.71
2018-09-30T05:21:44.328Z,78.93
2018-09-30T05:24:12.702Z,76.98
2018-09-30T05:26:41.988Z,75.66
2018-09-30T05:29:10.926Z,73.88
2018-09-30T05:31:39.707Z,74.02
2018-09-30T05:34:08.165Z,72.10
2018-09-30T05:36:36.608Z,71.98
2018-09-30T05:39:07.180Z,71.36
2018-09-30T05:41:35.733Z,70.52
2018-09-30T05:44:04.451Z,71.14
2018-09-30T05:46:32.983Z,70.89
2018-09-30T05:49:01.853Z,70.25
2018-09-30T05:51:31.735Z,70.23
2018-09-30T05:54:00.522Z,69.53
2018-09-30T05:56:29.526Z,67.49
2018-09-30T05:58:58.201Z,67.83
2018-09-30T06:01:26.923Z,66.63
2018-09-30T06:03:56.665Z,65.97
2018-09-30T06:06:25.248Z,66.48
2018-09-30T06:08:53.754Z,67.32
2018-09-30T06:11:22.359Z,66.12
2018-09-30T06:13:51.249Z,66.25
2018-09-30T06:16:20.359Z,66.06
2018-09-30T06:18:49.510Z,65.86
2018-09-30T06:21:18.174Z,64.84
2018-09-30T06:23:47.443Z,63.70
2018-09-30T06:26:16.253Z,63.04
2018-09-30T06:28:46.855Z,65.08
2018-09-30T06:31:16.062Z,62.68
2018-09-30T06:33:45.857Z,62.17
2018-09-30T06:36:14.650Z,61.04
2018-09-30T06:38:43.773Z,61.13
2018-09-30T06:41:12.587Z,60.49
2018-09-30T06:43:41.727Z,60.80
2018-09-30T06:46:10.317Z,60.68
2018-09-30T06:48:39.239Z,59.16
2018-09-30T06:51:08.340Z,60.12
2018-09-30T06:53:37.343Z,59.85
2018-09-30T06:56:06.602Z,60.69
2018-09-30T06:58:35.733Z,59.16
2018-09-30T07:01:04.896Z,60.34
2018-09-30T07:03:33.834Z,60.61
2018-09-30T07:06:03.040Z,60.05
2018-09-30T07:08:32.381Z,60.19
2018-09-30T07:11:02.428Z,60.09
2018-09-30T07:13:32.282Z,60.29
2018-09-30T07:16:01.356Z,59.80
2018-09-30T07:18:30.531Z,60.00
2018-09-30T07:20:59.584Z,59.54
2018-09-30T07:23:28.246Z,59.02
2018-09-30T07:25:58.014Z,58.83
2018-09-30T07:28:28.312Z,60.02
2018-09-30T07:30:57.260Z,60.46
2018-09-30T07:33:26.068Z,59.13
2018-09-30T07:35:55.968Z,57.86
2018-09-30T07:38:24.651Z,57.12
2018-09-30T07:40:53.921Z,58.64
2018-09-30T07:43:23.387Z,58.96
2018-09-30T07:45:52.633Z,59.80
2018-09-30T07:48:21.305Z,58.58
2018-09-30T07:50:49.854Z,57.56
2018-09-30T07:53:18.665Z,56.90
2018-09-30T07:55:48.153Z,57.04
2018-09-30T07:58:17.541Z,56.21
2018-09-30T08:00:46.071Z,55.48
2018-09-30T08:03:14.461Z,56.70
2018-09-30T08:05:43.300Z,55.82
2018-09-30T08:08:12.077Z,55.79
2018-09-30T08:10:41.288Z,55.82
2018-09-30T08:13:10.708Z,54.67
2018-09-30T08:15:41.133Z,54.33
2018-09-30T08:18:11.854Z,53.87
2018-09-30T08:20:41.641Z,54.25
2018-09-30T08:23:10.807Z,53.78
2018-09-30T08:25:40.219Z,53.95
2018-09-30T08:28:09.704Z,54.15
2018-09-30T08:30:39.210Z,53.66
2018-09-30T08:33:08.494Z,54.42
2018-09-30T08:35:37.705Z,51.72
2018-09-30T08:38:12.790Z,51.10
2018-09-30T08:40:47.821Z,48.80
2018-09-30T08:43:16.964Z,48.82
2018-09-30T08:45:48.847Z,49.75
2018-09-30T08:48:18.041Z,48.17
2018-09-30T08:50:46.963Z,47.12
2018-09-30T08:53:16.136Z,46.52
2018-09-30T08:55:45.196Z,47.99
2018-09-30T08:58:14.192Z,46.52
2018-09-30T09:00:43.845Z,45.94
2018-09-30T09:03:14.963Z,47.01
2018-09-30T09:05:49.650Z,48.00
2018-09-30T09:08:20.433Z,46.62
2018-09-30T09:10:52.978Z,46.89
2018-09-30T09:13:24.145Z,46.26
2018-09-30T09:15:55.065Z,46.59
2018-09-30T09:18:23.882Z,46.34
2018-09-30T09:20:52.452Z,45.63
2018-09-30T09:23:21.063Z,45.86
2018-09-30T09:25:49.560Z,46.06
2018-09-30T09:28:18.207Z,45.87
2018-09-30T09:30:48.127Z,48.06
2018-09-30T09:33:18.678Z,48.30
2018-09-30T09:35:48.794Z,49.43
2018-09-30T09:38:18.820Z,48.66
2018-09-30T09:40:47.451Z,47.63
2018-09-30T09:43:16.237Z,47.23
2018-09-30T09:45:46.324Z,47.86
2018-09-30T09:48:15.335Z,46.70
2018-09-30T09:50:49.114Z,46.69
2018-09-30T09:53:18.596Z,45.33
2018-09-30T09:55:47.169Z,44.05
2018-09-30T09:58:15.742Z,45.26
2018-09-30T10:00:45.907Z,44.66
2018-09-30T10:03:15.743Z,43.69
2018-09-30T10:05:44.613Z,43.04
2018-09-30T10:08:15.230Z,43.31
2018-09-30T10:10:44.072Z,43.29
2018-09-30T10:15:59.300Z,44.97
2018-09-30T10:18:28.339Z,45.84
2018-09-30T10:20:56.737Z,44.92
2018-09-30T10:23:25.459Z,45.07
2018-09-30T10:25:54.102Z,45.35
2018-09-30T10:28:22.432Z,45.31
2018-09-30T10:30:50.927Z,45.93
2018-09-30T10:33:19.575Z,45.77
2018-09-30T10:35:48.072Z,45.61
2018-09-30T10:38:16.868Z,44.88
2018-09-30T10:40:45.267Z,43.98
2018-09-30T10:43:14.615Z,44.80
2018-09-30T10:45:43.313Z,45.13
2018-09-30T10:48:13.535Z,45.57
2018-09-30T10:50:44.327Z,45.66
2018-09-30T10:53:17.990Z,46.25
2018-09-30T10:55:47.127Z,45.62
2018-09-30T10:58:19.385Z,45.71
2018-09-30T11:00:51.522Z,46.38
2018-09-30T11:03:22.024Z,46.47
2018-09-30T11:05:52.513Z,47.05
2018-09-30T11:08:26.619Z,47.82
2018-09-30T11:11:02.230Z,46.69
2018-09-30T11:13:37.165Z,47.79
2018-09-30T11:16:07.040Z,49.16
2018-09-30T11:18:37.616Z,49.58
2018-09-30T11:21:07.179Z,49.85
2018-09-30T11:23:35.670Z,50.15
2018-09-30T11:26:04.628Z,49.72
2018-09-30T11:28:33.795Z,49.66
2018-09-30T11:31:02.581Z,49.08
2018-09-30T11:33:31.592Z,49.13
2018-09-30T11:35:59.929Z,48.64
2018-09-30T11:38:28.605Z,48.22
2018-09-30T11:40:58.805Z,48.78
2018-09-30T11:43:27.525Z,50.36
2018-09-30T11:45:56.312Z,49.09
2018-09-30T11:48:24.945Z,50.52
2018-09-30T11:50:53.739Z,50.96
2018-09-30T11:53:22.284Z,48.67
2018-09-30T11:55:51.320Z,48.67
2018-09-30T11:58:20.006Z,49.64
2018-09-30T12:00:50.275Z,49.82
2018-09-30T12:03:21.120Z,50.22
2018-09-30T12:05:50.901Z,51.46
2018-09-30T12:08:19.952Z,51.17
2018-09-30T12:10:49.593Z,51.20
2018-09-30T12:13:18.631Z,51.92
2018-09-30T12:15:48.290Z,53.73
2018-09-30T12:18:17.074Z,54.13
2018-09-30T12:20:45.890Z,55.64
2018-09-30T12:23:14.939Z,55.67
2018-09-30T12:25:43.649Z,54.39
2018-09-30T12:28:12.147Z,54.99
2018-09-30T12:30:41.620Z,54.83
2018-09-30T12:33:10.448Z,53.83
2018-09-30T12:35:39.389Z,55.03
2018-09-30T12:38:08.969Z,55.09
2018-09-30T12:40:37.662Z,56.37
2018-09-30T12:43:06.671Z,55.98
2018-09-30T12:45:36.354Z,56.02
2018-09-30T12:48:06.508Z,56.28
2018-09-30T12:50:37.218Z,56.73
2018-09-30T12:53:09.142Z,55.97
2018-09-30T12:55:41.242Z,56.36
2018-09-30T12:58:12.684Z,55.89
2018-09-30T13:00:42.442Z,56.85
2018-09-30T13:03:11.101Z,56.83
2018-09-30T13:05:40.701Z,56.39
2018-09-30T13:08:12.130Z,56.77
2018-09-30T13:10:57.295Z,56.61
2018-09-30T13:13:26.725Z,58.03
2018-09-30T13:15:56.180Z,59.38
2018-09-30T13:18:27.374Z,60.57
2018-09-30T13:20:56.922Z,60.86
2018-09-30T13:23:26.939Z,60.56
2018-09-30T13:25:55.817Z,59.60
2018-09-30T13:28:25.715Z,60.69
2018-09-30T13:30:57.353Z,61.20
2018-09-30T13:33:29.297Z,61.30
2018-09-30T13:36:00.508Z,61.74
2018-09-30T13:38:31.915Z,61.95
2018-09-30T13:41:03.275Z,61.87
2018-09-30T13:43:35.054Z,62.25
2018-09-30T13:46:03.625Z,62.55
2018-09-30T13:48:31.776Z,63.01
2018-09-30T13:51:00.228Z,63.38
2018-09-30T13:53:28.689Z,62.89
2018-09-30T13:55:56.872Z,63.87
2018-09-30T13:58:24.995Z,64.93
2018-09-30T14:00:54.827Z,64.55
2018-09-30T14:03:23.148Z,65.26
2018-09-30T14:05:51.474Z,65.17
2018-09-30T14:08:19.802Z,65.27
2018-09-30T14:10:48.147Z,65.36
2018-09-30T14:13:16.342Z,65.81
2018-09-30T14:15:44.512Z,64.91
2018-09-30T14:18:12.788Z,65.05
2018-09-30T14:20:40.921Z,65.09
2018-09-30T14:23:09.029Z,65.21
2018-09-30T14:25:37.185Z,65.32
2018-09-30T14:28:05.219Z,65.64
2018-09-30T14:30:33.568Z,65.79
2018-09-30T14:33:01.637Z,65.63
2018-09-30T14:35:30.022Z,66.01
2018-09-30T14:37:58.351Z,65.86
2018-09-30T14:40:26.858Z,66.21
2018-09-30T14:42:55.461Z,67.17
2018-09-30T14:45:23.775Z,66.51
2018-09-30T14:47:52.001Z,67.18
2018-09-30T14:50:20.331Z,67.02
2018-09-30T14:52:48.540Z,67.19
2018-09-30T14:55:16.890Z,67.54
2018-09-30T14:57:45.251Z,68.24
2018-09-30T15:00:13.600Z,68.14
2018-09-30T15:05:39.964Z,69.67
2018-09-30T15:08:08.278Z,69.49
2018-09-30T15:10:36.507Z,69.55
2018-09-30T15:13:04.826Z,69.92
2018-09-30T15:15:33.141Z,69.64
2018-09-30T15:18:01.647Z,69.71
2018-09-30T15:20:29.803Z,69.35
2018-09-30T15:22:57.955Z,69.43
2018-09-30T15:25:26.088Z,69.70
2018-09-30T15:27:54.638Z,69.74
2018-09-30T15:30:22.744Z,69.47
2018-09-30T15:32:50.956Z,70.40
2018-09-30T15:35:19.136Z,70.51
2018-09-30T15:37:47.695Z,70.07
2018-09-30T15:40:16.148Z,70.54
2018-09-30T15:42:44.567Z,70.31
2018-09-30T15:45:12.951Z,69.96
2018-09-30T15:47:41.165Z,69.85
2018-09-30T15:50:09.515Z,70.03
2018-09-30T15:52:37.804Z,70.51
2018-09-30T15:55:05.972Z,70.90
2018-09-30T15:57:34.288Z,70.12
2018-09-30T16:00:02.720Z,69.95
2018-09-30T16:02:30.992Z,70.02
2018-09-30T16:04:59.248Z,70.96
2018-09-30T16:07:27.367Z,70.90
2018-09-30T16:09:55.513Z,70.78
2018-09-30T16:12:24.832Z,71.13
2018-09-30T16:14:52.945Z,71.35
2018-09-30T16:17:21.171Z,71.61
2018-09-30T16:19:49.423Z,71.84
2018-09-30T16:22:17.733Z,71.84
2018-09-30T16:24:46.052Z,72.29
2018-09-30T16:27:14.155Z,72.57
2018-09-30T16:29:42.550Z,73.04
2018-09-30T16:32:11.045Z,72.66
2018-09-30T16:34:39.483Z,72.26
2018-09-30T16:37:08.719Z,70.32
2018-09-30T16:39:36.774Z,70.80
2018-09-30T16:42:05.080Z,71.50
2018-09-30T16:44:33.229Z,70.47
2018-09-30T16:47:01.500Z,70.64
2018-09-30T16:49:30.233Z,71.34
2018-09-30T16:51:58.591Z,71.95
2018-09-30T16:54:26.989Z,71.44
2018-09-30T16:56:55.371Z,71.76
2018-09-30T16:59:23.838Z,71.38
2018-09-30T17:01:52.523Z,72.02
2018-09-30T17:04:20.878Z,72.21
2018-09-30T17:06:49.757Z,72.48
2018-09-30T17:09:18.607Z,72.54
2018-09-30T17:11:47.320Z,72.74
2018-09-30T17:14:18.256Z,73.04
2018-09-30T17:16:49.625Z,73.36
2018-09-30T17:19:18.057Z,73.28
2018-09-30T17:21:46.479Z,73.84
2018-09-30T17:24:14.957Z,72.79
2018-09-30T17:26:43.929Z,73.53
2018-09-30T17:29:13.551Z,74.13
2018-09-30T17:31:42.189Z,74.96
2018-09-30T17:34:10.937Z,74.84
2018-09-30T17:36:39.408Z,74.51
2018-09-30T17:39:08.908Z,74.35
2018-09-30T17:41:37.457Z,73.94
2018-09-30T17:44:06.643Z,73.77
2018-09-30T17:46:38.622Z,75.01
2018-09-30T17:49:08.813Z,75.78
2018-09-30T17:51:37.275Z,75.97
2018-09-30T17:54:05.979Z,76.43
2018-09-30T17:56:35.644Z,76.83
2018-09-30T17:59:04.794Z,76.33
2018-09-30T18:01:35.077Z,76.59
2018-09-30T18:04:04.022Z,76.55
2018-09-30T18:06:32.221Z,78.43
2018-09-30T18:09:06.880Z,77.98
2018-09-30T18:11:35.185Z,79.09
2018-09-30T18:14:03.548Z,79.59
2018-09-30T18:16:31.890Z,79.81
2018-09-30T18:19:00.124Z,79.94
2018-09-30T18:21:28.928Z,79.19
2018-09-30T18:23:57.707Z,79.61
2018-09-30T18:26:26.376Z,79.92
2018-09-30T18:28:54.599Z,79.69
2018-09-30T18:31:23.130Z,79.24
2018-09-30T18:33:51.523Z,80.02
2018-09-30T18:36:19.730Z,80.73
2018-09-30T18:38:48.288Z,80.55
2018-09-30T18:41:16.567Z,80.55
2018-09-30T18:43:45.011Z,80.83
2018-09-30T18:46:13.651Z,81.30
2018-09-30T18:48:42.104Z,80.81
2018-09-30T18:51:11.126Z,81.09
2018-09-30T18:53:39.599Z,81.58
2018-09-30T18:56:08.163Z,81.53
2018-09-30T18:58:37.677Z,82.19
2018-09-30T19:01:06.597Z,81.79
2018-09-30T19:03:34.918Z,82.48
2018-09-30T19:06:03.179Z,82.76
2018-09-30T19:08:31.661Z,82.66
2018-09-30T19:11:00.486Z,82.82
2018-09-30T19:13:29.610Z,82.88
2018-09-30T19:15:59.738Z,83.42
2018-09-30T19:18:28.184Z,83.42
2018-09-30T19:20:56.955Z,83.93
2018-09-30T19:23:25.510Z,83.47
2018-09-30T19:25:54.287Z,83.71
2018-09-30T19:28:23.268Z,82.85
2018-09-30T19:30:53.069Z,83.61
2018-09-30T19:33:21.948Z,84.07
2018-09-30T19:35:51.616Z,84.33
2018-09-30T19:38:20.205Z,84.41
2018-09-30T19:40:51.791Z,83.89
2018-09-30T19:43:21.636Z,84.01
2018-09-30T19:45:49.998Z,83.15
2018-09-30T19:48:19.110Z,83.95
2018-09-30T19:50:47.443Z,84.45
2018-09-30T19:53:16.203Z,84.59
2018-09-30T19:55:44.672Z,85.33
2018-09-30T19:58:13.124Z,84.87
2018-09-30T20:00:41.832Z,84.26
2018-09-30T20:03:10.752Z,85.46
2018-09-30T20:05:39.181Z,85.50
2018-09-30T20:08:07.434Z,85.78
2018-09-30T20:10:35.855Z,85.54
2018-09-30T20:13:04.482Z,85.65
2018-09-30T20:15:32.930Z,85.42
2018-09-30T20:18:01.256Z,86.16
2018-09-30T20:20:30.972Z,86.81
2018-09-30T20:23:00.912Z,86.63
2018-09-30T20:25:31.805Z,86.75
2018-09-30T20:28:00.427Z,85.98
2018-09-30T20:30:31.321Z,86.61
2018-09-30T20:33:00.669Z,85.84
2018-09-30T20:35:29.014Z,86.00
2018-09-30T20:37:57.956Z,84.82
2018-09-30T20:40:27.171Z,84.47
2018-09-30T20:42:55.487Z,85.46
2018-09-30T20:45:24.685Z,85.36
2018-09-30T20:47:52.989Z,85.80
2018-09-30T20:50:21.158Z,86.10
2018-09-30T20:52:49.468Z,86.09
2018-09-30T20:55:17.705Z,85.95
2018-09-30T20:57:46.014Z,86.17
2018-09-30T21:00:14.298Z,85.55
2018-09-30T21:02:42.906Z,86.04
2018-09-30T21:05:25.184Z,85.23
2018-09-30T21:07:53.798Z,85.81
2018-09-30T21:10:22.077Z,86.15
2018-09-30T21:12:50.409Z,86.45
2018-09-30T21:15:18.693Z,86.29
2018-09-30T21:17:46.972Z,86.86
2018-09-30T21:20:15.319Z,87.70
2018-09-30T21:22:43.606Z,86.96
2018-09-30T21:25:12.124Z,87.54
2018-09-30T21:27:40.639Z,87.30
2018-09-30T21:30:09.919Z,87.27
2018-09-30T21:32:38.991Z,87.69
2018-09-30T21:35:08.746Z,87.75
2018-09-30T21:37:37.767Z,87.89
2018-09-30T21:40:06.369Z,87.88
2018-09-30T21:42:34.539Z,87.53
2018-09-30T21:45:02.873Z,87.64
2018-09-30T21:47:31.465Z,87.26
2018-09-30T21:50:00.012Z,86.98
2018-09-30T21:52:28.501Z,87.33
2018-09-30T21:54:56.808Z,87.28
2018-09-30T21:57:25.046Z,87.66
2018-09-30T21:59:53.155Z,88.22
2018-09-30T22:02:21.224Z,88.00
2018-09-30T22:04:49.320Z,88.76
2018-09-30T22:07:17.414Z,88.28
2018-09-30T22:09:45.676Z,87.62
2018-09-30T22:12:13.868Z,87.94
2018-09-30T22:14:41.957Z,87.76
2018-09-30T22:17:10.162Z,87.75
2018-09-30T22:19:38.326Z,88.09
2018-09-30T22:22:06.917Z,88.42
2018-09-30T22:24:35.008Z,87.91
2018-09-30T22:27:03.239Z,88.04
2018-09-30T22:29:31.508Z,87.93
2018-09-30T22:31:59.589Z,87.74
2018-09-30T22:34:27.773Z,87.38
2018-09-30T22:36:56.051Z,87.59
2018-09-30T22:39:24.204Z,87.65
2018-09-30T22:41:52.378Z,87.88
2018-09-30T22:44:20.530Z,88.06
2018-09-30T22:46:48.688Z,88.37
2018-09-30T22:49:16.778Z,88.58
2018-09-30T22:51:44.865Z,87.99
2018-09-30T22:54:12.915Z,87.23
2018-09-30T22:56:41.018Z,88.59
2018-09-30T22:59:09.146Z,88.49
2018-09-30T23:01:37.260Z,88.83
2018-09-30T23:04:11.887Z,88.80
2018-09-30T23:06:39.998Z,88.34
2018-09-30T23:09:08.548Z,89.01
2018-09-30T23:11:36.920Z,89.63
2018-09-30T23:14:04.963Z,89.68
2018-09-30T23:16:33.166Z,89.38
2018-09-30T23:19:01.260Z,88.71
2018-09-30T23:21:29.494Z,88.72
2018-09-30T23:23:57.771Z,88.79
2018-09-30T23:26:25.940Z,88.84
2018-09-30T23:28:54.126Z,89.16
2018-09-30T23:31:22.455Z,89.54
2018-09-30T23:33:50.508Z,89.29
2018-09-30T23:36:18.730Z,89.39
2018-09-30T23:38:46.920Z,89.31
2018-09-30T23:41:15.689Z,89.15
2018-09-30T23:43:43.926Z,89.49
2018-09-30T23:46:12.041Z,89.62
2018-09-30T23:48:40.122Z,90.06
2018-09-30T23:51:08.269Z,89.49
2018-09-30T23:53:36.346Z,89.17
2018-09-30T23:56:04.461Z,89.64
2018-09-30T23:58:32.486Z,89.31
